Time;durP1;ratioP1;P1;durP2;ratioP2;P2;SDS_P1;SDS_P2;PMS_P1;PMS_P2;Temp;Humidity;BMP_temperature;BMP_pressure;BME280_temperature;BME280_humidity;BME280_pressure;Samples;Min_cycle;Max_cycle;Signal;HPM_P1;HPM_P2
2023/09/20 00:00:33;;;;;;;12.68;10.60;;;;;;;-145.63;48.40;39082.91;5025575;28;20021;-64
2023/09/20 00:02:59;;;;;;;15.02;11.45;;;;;;;-145.63;48.48;39094.66;5035136;28;20324;-64
2023/09/20 00:05:26;;;;;;;17.70;11.23;;;;;;;-145.63;48.69;39104.44;5032834;28;20194;-65
2023/09/20 00:07:56;;;;;;;12.10;10.18;;;;;;;-145.63;48.71;39041.84;5035302;28;20113;-64
2023/09/20 00:10:22;;;;;;;13.85;10.70;;;;;;;-145.63;48.39;39067.28;5024924;28;20034;-65
2023/09/20 00:12:48;;;;;;;13.90;11.43;;;;;;;-145.63;48.43;39067.28;5024147;28;20029;-65
2023/09/20 00:15:14;;;;;;;18.60;10.88;;;;;;;-145.63;48.42;39108.34;5005501;28;20049;-65
2023/09/20 00:17:40;;;;;;;13.20;11.45;;;;;;;-145.63;48.88;39082.91;5021248;28;20041;-64
2023/09/20 00:20:13;;;;;;;15.07;11.60;;;;;;;-145.63;48.69;38136.50;5024750;28;20246;-65
2023/09/20 00:22:41;;;;;;;16.95;11.38;;;;;;;-145.63;48.39;39112.25;5017115;28;20026;-65
2023/09/20 00:25:09;;;;;;;18.08;11.55;;;;;;;-145.63;48.20;39104.44;5008332;28;20021;-65
2023/09/20 00:27:35;;;;;;;12.38;10.98;;;;;;;-145.63;48.64;39071.19;5013224;28;20046;-64
2023/09/20 00:30:03;;;;;;;15.02;11.40;;;;;;;-145.63;48.69;39075.09;5004770;28;20345;-64
2023/09/20 00:32:31;;;;;;;15.45;11.60;;;;;;;-145.63;48.64;39075.09;5019833;28;20298;-64
2023/09/20 00:34:56;;;;;;;15.63;12.38;;;;;;;-145.63;48.78;39104.44;5014704;28;20038;-65
2023/09/20 00:37:22;;;;;;;14.82;11.23;;;;;;;-145.63;48.52;39055.53;5010223;28;20052;-65
2023/09/20 00:39:48;;;;;;;13.88;11.38;;;;;;;-145.63;48.50;39102.47;5023957;28;20037;-66
2023/09/20 00:42:13;;;;;;;14.82;11.20;;;;;;;-145.63;48.05;39094.66;5016620;28;20026;-66
2023/09/20 00:44:39;;;;;;;16.20;11.38;;;;;;;-145.63;48.40;39073.13;5024531;28;20295;-65
2023/09/20 00:47:05;;;;;;;14.15;11.90;;;;;;;-145.63;48.65;39090.75;5013338;28;20072;-64
2023/09/20 00:49:34;;;;;;;16.15;11.13;;;;;;;-145.63;48.43;39067.28;5009289;28;20190;-65
2023/09/20 00:52:03;;;;;;;16.50;12.07;;;;;;;-145.63;48.27;39084.88;5024569;28;20026;-65
2023/09/20 00:54:29;;;;;;;15.95;12.00;;;;;;;-145.63;48.60;39094.66;5017228;28;20341;-64
2023/09/20 00:56:55;;;;;;;15.80;11.38;;;;;;;-145.63;48.38;39086.81;5022183;28;20257;-64
2023/09/20 00:59:21;;;;;;;16.25;11.65;;;;;;;-145.63;48.32;39125.94;5013463;28;20057;-65
2023/09/20 01:01:48;;;;;;;15.90;12.48;;;;;;;-145.63;48.51;39055.53;5024160;28;20049;-66
2023/09/20 01:04:14;;;;;;;15.77;12.43;;;;;;;-145.63;48.40;38955.81;5020412;28;20026;-65
2023/09/20 01:06:41;;;;;;;16.98;12.32;;;;;;;-145.63;48.40;39118.13;5004825;28;20022;-64
2023/09/20 01:09:09;;;;;;;15.85;12.65;;;;;;;-145.63;48.48;39092.69;5024564;28;20067;-64
2023/09/20 01:11:34;;;;;;;17.48;12.50;;;;;;;-145.63;48.35;39104.44;5028956;28;20026;-65
2023/09/20 01:14:00;;;;;;;13.88;11.80;;;;;;;-145.63;48.44;39082.91;5007242;28;20383;-66
2023/09/20 01:16:27;;;;;;;16.13;11.85;;;;;;;-145.63;48.39;39090.75;5009853;28;20049;-65
2023/09/20 01:18:52;;;;;;;16.95;11.18;;;;;;;-145.63;48.38;39094.66;5022835;28;20034;-65
2023/09/20 01:21:18;;;;;;;17.50;12.23;;;;;;;-145.63;48.63;39086.81;5004422;28;20088;-66
2023/09/20 01:23:44;;;;;;;15.73;11.45;;;;;;;-145.63;48.63;39127.91;5020131;28;20032;-65
2023/09/20 01:26:11;;;;;;;16.95;12.35;;;;;;;-145.63;48.81;39131.81;5018072;28;20046;-65
2023/09/20 01:28:37;;;;;;;14.98;12.38;;;;;;;-145.63;48.60;39084.88;5018679;28;20241;-66
2023/09/20 01:31:05;;;;;;;16.70;12.35;;;;;;;-145.63;48.97;39141.59;5021482;28;20041;-64
2023/09/20 01:33:31;;;;;;;16.77;12.82;;;;;;;-145.63;48.96;39112.25;5004108;28;20071;-65
2023/09/20 01:35:58;;;;;;;14.63;12.75;;;;;;;-145.63;49.04;39114.22;5021761;28;20034;-66
2023/09/20 01:38:25;;;;;;;19.08;12.50;;;;;;;-145.63;48.71;39096.59;5010506;28;20129;-67
2023/09/20 01:40:55;;;;;;;18.50;12.93;;;;;;;-145.63;48.99;39090.75;5012703;28;20021;-67
2023/09/20 01:43:22;;;;;;;13.60;11.95;;;;;;;-145.63;48.83;39120.06;5023690;28;20080;-66
2023/09/20 01:45:47;;;;;;;21.20;12.88;;;;;;;-145.63;48.69;39090.75;5028034;28;20017;-67
2023/09/20 01:48:13;;;;;;;20.42;12.98;;;;;;;-145.63;49.05;39157.22;5023383;28;20214;-66
2023/09/20 01:50:41;;;;;;;19.90;12.27;;;;;;;-145.63;48.99;38570.56;5011311;28;20033;-66
2023/09/20 01:53:11;;;;;;;17.73;13.25;;;;;;;-145.63;49.19;39131.81;5029603;28;20072;-66
2023/09/20 01:55:41;;;;;;;17.80;13.18;;;;;;;-145.63;49.06;39133.75;5016924;28;20049;-65
2023/09/20 01:58:07;;;;;;;20.35;13.55;;;;;;;-145.63;49.04;39165.06;5005994;28;20022;-66
2023/09/20 02:00:38;;;;;;;20.40;13.43;;;;;;;-145.63;48.79;39122.03;5022461;28;20045;-65
2023/09/20 02:03:27;;;;;;;22.52;12.90;;;;;;;-145.63;48.91;39118.13;5012132;28;20033;-66
2023/09/20 02:05:53;;;;;;;23.75;13.38;;;;;;;-145.63;49.03;39114.22;5031298;28;20049;-65
2023/09/20 02:08:18;;;;;;;21.27;12.95;;;;;;;-145.63;49.15;39123.97;5022148;28;20361;-64
2023/09/20 02:10:45;;;;;;;21.65;13.38;;;;;;;-145.63;48.90;39118.13;5029462;28;20088;-66
2023/09/20 02:13:11;;;;;;;19.80;12.90;;;;;;;-145.63;49.08;39094.66;5022897;28;20048;-67
2023/09/20 02:15:41;;;;;;;18.15;13.90;;;;;;;-145.63;48.95;39122.03;5003926;28;20023;-66
2023/09/20 02:18:09;;;;;;;17.87;13.90;;;;;;;-145.63;49.07;39102.47;5022407;28;20046;-67
2023/09/20 02:20:36;;;;;;;18.38;12.88;;;;;;;-145.63;49.09;39112.25;5007774;28;20069;-65
2023/09/20 02:23:05;;;;;;;16.33;12.68;;;;;;;-145.63;49.15;38906.91;5018433;28;20351;-67
2023/09/20 02:25:30;;;;;;;19.23;13.45;;;;;;;-145.63;48.77;39174.84;5038731;28;20387;-66
2023/09/20 02:27:57;;;;;;;21.40;13.43;;;;;;;-145.63;48.85;39153.31;5009799;28;20058;-66
2023/09/20 02:30:27;;;;;;;16.45;13.93;;;;;;;-145.63;49.18;39155.28;5003298;28;20242;-65
2023/09/20 02:32:57;;;;;;;15.63;12.60;;;;;;;-145.63;49.20;39143.53;5019681;28;20030;-67
2023/09/20 02:35:26;;;;;;;18.67;13.68;;;;;;;-145.63;49.31;39139.63;5010474;28;20026;-64
2023/09/20 02:37:53;;;;;;;16.48;13.02;;;;;;;-145.63;49.28;39215.91;5011676;28;20033;-64
2023/09/20 02:40:18;;;;;;;16.20;12.73;;;;;;;-145.63;49.30;39131.81;5018202;28;20317;-64
2023/09/20 02:42:53;;;;;;;15.32;12.43;;;;;;;-145.63;49.31;39145.50;5020795;28;20072;-64
2023/09/20 02:45:20;;;;;;;18.90;12.60;;;;;;;-145.63;49.18;39159.19;5004678;28;20030;-65
2023/09/20 02:47:47;;;;;;;19.00;13.80;;;;;;;-145.63;49.40;39129.84;5027313;28;20022;-65
2023/09/20 02:50:16;;;;;;;14.52;12.57;;;;;;;-145.63;49.26;39153.31;5022551;28;20691;-65
2023/09/20 02:52:45;;;;;;;18.55;13.90;;;;;;;-145.63;50.32;39157.22;5015985;28;20100;-65
2023/09/20 02:55:13;;;;;;;16.95;13.48;;;;;;;-145.63;50.08;39143.53;5005538;28;20026;-66
2023/09/20 02:57:43;;;;;;;17.73;13.43;;;;;;;-145.63;50.13;39161.13;5022619;28;20057;-65
2023/09/20 03:00:15;;;;;;;18.75;12.68;;;;;;;-145.63;49.71;39174.84;5004253;28;20022;-65
2023/09/20 03:02:44;;;;;;;;;;;;;;;-145.63;50.19;39165.06;5018153;28;20084;-65
2023/09/20 03:05:11;;;;;;;17.75;13.65;;;;;;;-145.63;50.03;39182.66;5012375;28;19905;-63
2023/09/20 03:07:37;;;;;;;18.70;13.95;;;;;;;-145.63;50.30;39155.28;5035616;28;20052;-63
2023/09/20 03:10:05;;;;;;;18.50;13.63;;;;;;;-145.63;50.16;39143.53;5023081;28;20021;-64
2023/09/20 03:12:32;;;;;;;17.75;13.52;;;;;;;-145.63;50.28;39153.31;5044516;28;20022;-65
2023/09/20 03:15:04;;;;;;;19.02;12.40;;;;;;;-145.63;50.38;39157.22;5028847;28;20080;-64
2023/09/20 03:17:31;;;;;;;16.08;12.48;;;;;;;-145.63;49.90;39184.59;5035199;28;20032;-65
2023/09/20 03:19:57;;;;;;;18.08;13.23;;;;;;;-145.63;50.24;39133.75;5037337;28;20279;-65
2023/09/20 03:22:22;;;;;;;17.45;13.52;;;;;;;-145.63;50.56;39157.22;5022318;28;20052;-63
2023/09/20 03:24:48;;;;;;;17.70;13.05;;;;;;;-145.63;50.16;39165.06;5007734;28;20030;-64
2023/09/20 03:27:15;;;;;;;16.90;12.88;;;;;;;-145.63;50.32;39210.03;5018139;28;20046;-66
2023/09/20 03:29:42;;;;;;;17.83;12.98;;;;;;;-145.63;49.91;39204.16;5020233;28;20362;-64
2023/09/20 03:32:08;;;;;;;18.08;12.90;;;;;;;-145.63;49.78;39176.78;5020336;28;20093;-64
2023/09/20 03:34:34;;;;;;;16.30;13.45;;;;;;;-145.63;50.05;39184.59;5020741;28;20026;-65
2023/09/20 03:37:00;;;;;;;16.92;13.25;;;;;;;-145.63;49.99;39151.38;5009213;28;20049;-64
2023/09/20 03:39:25;;;;;;;15.15;12.50;;;;;;;-145.63;49.85;39180.69;5025734;28;20266;-64
2023/09/20 03:41:51;;;;;;;16.55;12.95;;;;;;;-145.63;49.97;39200.25;5020446;28;20038;-64
2023/09/20 03:44:19;;;;;;;17.17;12.68;;;;;;;-145.63;50.32;39161.13;5025663;28;20030;-64
2023/09/20 03:46:45;;;;;;;13.80;12.30;;;;;;;-145.63;50.17;39157.22;5029880;28;20071;-64
2023/09/20 03:49:12;;;;;;;16.08;12.07;;;;;;;-145.63;49.65;39168.97;5025453;28;20056;-64
2023/09/20 03:51:38;;;;;;;20.33;13.60;;;;;;;-145.63;49.80;39167.00;5025659;28;20246;-66
2023/09/20 03:54:04;;;;;;;16.70;12.15;;;;;;;-145.63;50.09;39141.59;5008346;28;20030;-65
2023/09/20 03:56:30;;;;;;;19.70;12.30;;;;;;;-145.63;50.01;39184.59;5018521;28;20032;-65
2023/09/20 03:58:55;;;;;;;17.67;12.27;;;;;;;-145.63;49.95;39178.75;5017358;28;20026;-64
2023/09/20 04:01:22;;;;;;;19.50;12.13;;;;;;;-145.63;49.65;39168.97;5008995;28;20029;-63
2023/09/20 04:03:47;;;;;;;14.43;9.98;;;;;;;-145.63;49.50;39153.31;5025302;28;20022;-63
2023/09/20 04:06:13;;;;;;;18.20;12.63;;;;;;;-145.63;49.38;39149.41;5022086;28;20064;-64
2023/09/20 04:08:39;;;;;;;16.13;12.35;;;;;;;-145.63;49.09;39165.06;5030968;28;20214;-64
2023/09/20 04:11:05;;;;;;;17.20;11.95;;;;;;;-145.63;49.12;39180.69;5024844;28;20041;-64
2023/09/20 04:13:31;;;;;;;16.23;12.68;;;;;;;-145.63;49.13;39172.88;5020863;28;20096;-64
2023/09/20 04:15:57;;;;;;;17.85;12.48;;;;;;;-145.63;49.15;39131.81;5005198;28;20037;-66
2023/09/20 04:18:23;;;;;;;15.02;12.50;;;;;;;-145.63;49.08;39118.13;5013766;28;20050;-65
2023/09/20 04:20:51;;;;;;;20.85;13.05;;;;;;;-145.63;49.09;39174.84;5020568;28;20080;-65
2023/09/20 04:23:16;;;;;;;19.27;12.93;;;;;;;-145.63;48.94;39190.47;5018937;28;20245;-66
2023/09/20 04:25:42;;;;;;;16.08;12.93;;;;;;;-145.63;48.79;39118.13;5024210;28;20059;-64
2023/09/20 04:28:09;;;;;;;15.30;12.02;;;;;;;-145.63;48.73;39147.44;5016293;28;20187;-65
2023/09/20 04:30:38;;;;;;;18.27;12.45;;;;;;;-145.63;48.82;39145.50;5024206;28;20321;-64
2023/09/20 04:33:06;;;;;;;16.45;12.55;;;;;;;-145.63;48.79;39278.47;5024395;28;20197;-64
2023/09/20 04:35:33;;;;;;;18.88;12.60;;;;;;;-145.63;48.64;39104.44;5012065;28;20072;-63
2023/09/20 04:38:00;;;;;;;18.00;13.15;;;;;;;-145.63;48.43;39151.38;5005013;28;20034;-64
2023/09/20 04:40:26;;;;;;;17.20;12.15;;;;;;;-145.63;48.75;39145.50;5016784;28;20042;-63
2023/09/20 04:42:51;;;;;;;19.25;12.48;;;;;;;-145.63;48.16;39127.91;5022473;28;20037;-62
2023/09/20 04:45:19;;;;;;;19.92;12.65;;;;;;;-145.63;48.14;39149.41;5024129;28;20064;-63
2023/09/20 04:47:45;;;;;;;13.23;11.75;;;;;;;-145.63;48.10;39129.84;5024171;28;20029;-62
2023/09/20 04:50:12;;;;;;;17.80;12.48;;;;;;;-145.63;48.01;39139.63;5019648;28;20026;-63
2023/09/20 04:52:38;;;;;;;20.13;13.35;;;;;;;-145.63;47.72;39239.38;5017511;28;20018;-62
2023/09/20 04:55:05;;;;;;;18.85;12.50;;;;;;;-145.63;47.74;39110.28;5021346;28;20029;-62
2023/09/20 04:57:31;;;;;;;18.90;12.60;;;;;;;-145.63;47.85;39092.69;5027281;28;20093;-62
2023/09/20 04:59:57;;;;;;;19.67;12.85;;;;;;;-145.63;47.51;39082.91;5025750;28;20036;-64
2023/09/20 05:02:23;;;;;;;18.75;11.70;;;;;;;-145.63;47.61;39118.13;5002901;28;20022;-63
2023/09/20 05:04:48;;;;;;;19.42;12.38;;;;;;;-145.63;47.50;39125.94;5014797;28;20089;-64
2023/09/20 05:07:14;;;;;;;20.50;13.05;;;;;;;-145.63;47.50;39129.84;5022608;28;20029;-63
2023/09/20 05:09:39;;;;;;;17.30;11.70;;;;;;;-145.63;46.79;39118.13;5023468;28;20089;-63
2023/09/20 05:12:05;;;;;;;18.88;12.10;;;;;;;-145.63;46.88;39106.38;5025638;28;20051;-62
2023/09/20 05:14:32;;;;;;;18.13;13.55;;;;;;;-145.63;46.80;39110.28;5022885;28;20021;-62
2023/09/20 05:16:57;;;;;;;18.25;12.02;;;;;;;-145.63;46.63;39104.44;5011767;28;20218;-62
2023/09/20 05:19:23;;;;;;;16.85;12.70;;;;;;;-145.63;46.60;39086.81;5020605;28;20026;-63
2023/09/20 05:21:49;;;;;;;16.13;12.02;;;;;;;-145.63;46.56;39098.56;5004218;28;20307;-64
2023/09/20 05:24:14;;;;;;;20.77;11.95;;;;;;;-145.63;45.92;39071.19;5033505;28;20317;-62
2023/09/20 05:26:40;;;;;;;19.83;12.38;;;;;;;-145.63;46.15;39082.91;5041578;28;20042;-63
2023/09/20 05:29:06;;;;;;;15.27;11.60;;;;;;;-145.63;45.99;39082.91;5034440;28;20030;-61
2023/09/20 05:31:32;;;;;;;23.33;12.80;;;;;;;-145.63;45.89;39065.31;5023992;28;20029;-62
2023/09/20 05:33:58;;;;;;;17.40;12.30;;;;;;;-145.63;45.37;39063.34;5023615;28;20093;-63
2023/09/20 05:36:27;;;;;;;15.60;12.30;;;;;;;-145.63;45.70;39032.06;5004176;28;20041;-63
2023/09/20 05:38:54;;;;;;;21.25;12.43;;;;;;;-145.63;45.44;39041.84;5018564;28;20030;-62
2023/09/20 05:41:19;;;;;;;16.50;10.77;;;;;;;-145.63;45.67;39037.94;5018688;28;20057;-63
2023/09/20 05:43:45;;;;;;;20.98;11.93;;;;;;;-145.63;46.08;39043.81;5018075;28;20235;-63
2023/09/20 05:46:14;;;;;;;16.13;11.80;;;;;;;-145.63;45.81;39032.06;5017996;28;20248;-63
2023/09/20 05:48:41;;;;;;;21.10;12.43;;;;;;;-145.63;44.87;39035.97;5022990;28;20045;-62
2023/09/20 05:51:08;;;;;;;17.70;11.55;;;;;;;-145.63;44.99;39008.59;5022709;28;20018;-63
2023/09/20 05:53:34;;;;;;;14.70;11.30;;;;;;;-145.63;45.31;39006.66;5027759;28;20025;-62
2023/09/20 05:56:11;;;;;;;19.75;11.05;;;;;;;-145.63;44.96;39008.59;5035543;28;20099;-62
2023/09/20 05:58:40;;;;;;;16.05;11.40;;;;;;;-145.63;44.06;39004.69;5018821;28;20026;-63
2023/09/20 06:01:09;;;;;;;20.83;12.02;;;;;;;-145.63;44.75;38996.88;5003485;28;20018;-63
2023/09/20 06:03:38;;;;;;;19.65;11.45;;;;;;;-145.63;43.89;38949.94;5023257;28;20018;-66
2023/09/20 06:06:06;;;;;;;15.40;11.02;;;;;;;-145.63;43.87;38942.13;5026004;28;20029;-61
2023/09/20 06:08:33;;;;;;;16.35;12.07;;;;;;;-145.63;43.35;38953.84;5030913;28;20026;-64
2023/09/20 06:11:04;;;;;;;21.30;11.07;;;;;;;-145.63;43.49;38906.91;5022950;28;20045;-62
2023/09/20 06:13:32;;;;;;;18.08;12.02;;;;;;;-145.63;42.54;38891.28;5019847;28;20025;-64
2023/09/20 06:15:59;;;;;;;19.67;12.20;;;;;;;-145.63;42.74;38887.34;5003575;28;20038;-63
2023/09/20 06:18:25;;;;;;;14.45;11.13;;;;;;;-145.63;42.69;38844.34;5022190;28;20338;-63
2023/09/20 06:20:51;;;;;;;19.95;11.65;;;;;;;-145.63;42.34;38883.44;5008906;28;20025;-63
2023/09/20 06:23:20;;;;;;;16.52;10.90;;;;;;;-145.63;41.89;38871.72;5012859;28;20026;-62
2023/09/20 06:25:49;;;;;;;21.85;11.75;;;;;;;-145.63;42.28;38850.19;5022880;28;20121;-62
2023/09/20 06:28:15;;;;;;;18.10;11.13;;;;;;;-145.63;42.08;38846.28;5006403;28;20673;-63
2023/09/20 06:30:41;;;;;;;14.45;10.00;;;;;;;-145.63;42.29;38844.34;5017313;28;20022;-63
2023/09/20 06:33:08;;;;;;;18.27;11.27;;;;;;;-145.63;41.53;38803.28;5012688;28;20286;-64
2023/09/20 06:35:39;;;;;;;19.15;10.43;;;;;;;-145.63;40.96;38773.94;5022119;28;20052;-63
2023/09/20 06:38:05;;;;;;;18.98;10.57;;;;;;;-145.63;39.75;38766.13;5022348;28;20028;-62
2023/09/20 06:40:38;;;;;;;16.05;10.43;;;;;;;-145.63;39.11;38685.94;5022646;28;20033;-63
2023/09/20 06:43:06;;;;;;;19.83;10.20;;;;;;;-145.63;39.49;38703.53;5021939;28;20053;-63
2023/09/20 06:45:32;;;;;;;16.27;10.00;;;;;;;-145.63;38.70;38672.25;5021382;28;20064;-64
2023/09/20 06:47:58;;;;;;;15.77;10.02;;;;;;;-145.63;38.64;38672.25;5023575;28;20032;-62
2023/09/20 06:50:24;;;;;;;18.95;10.50;;;;;;;-145.63;38.08;38684.00;5026312;28;20030;-65
2023/09/20 06:52:51;;;;;;;22.58;10.52;;;;;;;-145.63;39.43;38668.34;5024043;28;20053;-63
2023/09/20 06:55:19;;;;;;;18.08;10.32;;;;;;;-145.63;39.09;38660.53;5024542;28;20212;-62
2023/09/20 06:57:47;;;;;;;27.00;12.15;;;;;;;-145.63;39.43;38644.88;5022643;28;20017;-63
2023/09/20 07:00:26;;;;;;;14.23;10.32;;;;;;;-145.63;38.40;38689.84;5024055;28;20069;-63
2023/09/20 07:02:57;;;;;;;18.35;9.48;;;;;;;-145.63;38.09;38684.00;5020258;28;20219;-63
2023/09/20 07:05:28;;;;;;;19.63;9.38;;;;;;;-145.63;38.55;38511.91;5025132;28;20028;-64
2023/09/20 07:07:54;;;;;;;11.73;9.52;;;;;;;-145.63;38.22;38684.00;5019987;28;20030;-64
2023/09/20 07:10:21;;;;;;;17.23;9.20;;;;;;;-145.63;37.76;38691.81;5017477;28;20037;-65
2023/09/20 07:12:47;;;;;;;13.95;8.95;;;;;;;-145.63;37.74;38674.22;5026214;28;20094;-65
2023/09/20 07:15:15;;;;;;;15.65;10.10;;;;;;;-145.63;38.64;38672.25;5015666;28;20030;-65
2023/09/20 07:17:45;;;;;;;15.20;8.63;;;;;;;-145.63;37.10;38654.66;5025702;28;20037;-65
2023/09/20 07:20:17;;;;;;;13.40;8.43;;;;;;;-145.63;37.10;38639.00;5020609;28;20033;-64
2023/09/20 07:22:47;;;;;;;14.50;8.80;;;;;;;-145.63;37.34;38633.16;5014956;28;20038;-64
2023/09/20 07:25:19;;;;;;;15.13;8.43;;;;;;;-145.63;37.32;38621.41;5006867;28;20326;-64
2023/09/20 07:27:50;;;;;;;14.30;9.50;;;;;;;-145.63;37.00;38594.03;5010983;28;20035;-64
2023/09/20 07:30:21;;;;;;;15.57;10.32;;;;;;;-145.63;37.50;38588.16;5013519;28;20034;-64
2023/09/20 07:32:48;;;;;;;13.17;9.17;;;;;;;-145.63;38.04;38613.59;5016138;28;20022;-64
2023/09/20 07:35:25;;;;;;;10.93;8.13;;;;;;;-145.63;38.44;38625.31;5025793;28;20561;-65
2023/09/20 07:37:56;;;;;;;13.23;9.88;;;;;;;-145.63;38.19;38609.69;5032030;28;20359;-65
2023/09/20 07:40:35;;;;;;;15.65;9.00;;;;;;;-145.63;36.77;38586.22;5031054;28;20036;-64
2023/09/20 07:43:04;;;;;;;10.57;8.70;;;;;;;-145.63;37.16;38582.31;5015791;28;20038;-64
2023/09/20 07:45:38;;;;;;;16.38;8.48;;;;;;;-145.63;36.25;38590.13;5022776;28;20029;-64
2023/09/20 07:48:16;;;;;;;18.33;9.13;;;;;;;-145.63;35.32;38551.03;5029879;28;20026;-65
2023/09/20 07:50:45;;;;;;;15.38;8.90;;;;;;;-145.63;36.66;38318.34;5025240;28;20203;-64
2023/09/20 07:53:15;;;;;;;19.27;8.55;;;;;;;-145.63;35.48;38551.03;5004600;28;20238;-63
2023/09/20 07:55:44;;;;;;;18.33;9.83;;;;;;;-145.63;36.29;38552.97;5009255;28;20029;-62
2023/09/20 07:58:11;;;;;;;12.40;8.80;;;;;;;-145.63;35.93;38511.91;5025171;28;20026;-63
2023/09/20 08:00:44;;;;;;;11.30;9.10;;;;;;;-145.63;35.89;38521.69;5018939;28;20043;-62
2023/09/20 08:03:11;;;;;;;15.57;8.60;;;;;;;-145.63;36.00;38484.53;5021452;28;20038;-63
2023/09/20 08:05:37;;;;;;;18.25;8.85;;;;;;;-145.63;35.36;38466.94;5011319;28;20376;-64
2023/09/20 08:08:05;;;;;;;19.70;8.60;;;;;;;-145.63;34.92;38451.28;5017765;28;20033;-62
2023/09/20 08:10:33;;;;;;;18.15;8.80;;;;;;;-145.63;34.66;38363.31;5017057;28;20033;-64
2023/09/20 08:12:59;;;;;;;11.40;8.30;;;;;;;-145.63;35.57;38431.75;5031604;28;20086;-63
2023/09/20 08:15:26;;;;;;;12.77;7.75;;;;;;;-145.63;34.60;38388.72;5034378;28;20034;-63
2023/09/20 08:20:39;;;;;;;9.23;8.02;;;;;;;-145.63;35.21;38441.53;5016090;28;20092;-63
2023/09/20 09:01:37;;;;;;;15.95;8.23;;;;;;;-145.63;30.79;38019.19;5016051;28;20028;-63
2023/09/20 09:04:08;;;;;;;13.65;7.70;;;;;;;-145.63;29.96;37944.91;5023579;28;20040;-64
2023/09/20 09:06:34;;;;;;;12.93;8.35;;;;;;;-145.63;30.54;37942.94;5025102;28;20033;-64
2023/09/20 09:09:01;;;;;;;12.10;7.88;;;;;;;-145.63;29.05;37921.44;5022394;28;20037;-63
2023/09/20 09:11:28;;;;;;;14.35;8.07;;;;;;;-145.63;29.93;37888.22;5023071;28;20026;-65
2023/09/20 09:14:00;;;;;;;14.15;8.07;;;;;;;-145.63;28.17;37894.06;5020931;28;20338;-64
2023/09/20 09:16:30;;;;;;;;;;;;;;;-145.63;28.47;37800.22;5023309;28;20038;-64
2023/09/20 09:18:56;;;;;;;14.55;7.90;;;;;;;-145.63;28.52;37765.03;5023141;28;19905;-63
2023/09/20 09:21:22;;;;;;;12.45;8.02;;;;;;;-145.63;28.43;37788.50;5005406;28;20022;-63
2023/09/20 09:23:48;;;;;;;10.27;7.63;;;;;;;-145.63;29.00;37722.03;5023263;28;20290;-63
2023/09/20 09:26:15;;;;;;;13.80;8.27;;;;;;;-145.63;29.04;37706.38;5020260;28;20045;-64
2023/09/20 09:28:42;;;;;;;13.65;8.40;;;;;;;-145.63;28.73;37755.25;5018377;28;20097;-64
2023/09/20 09:31:08;;;;;;;13.38;8.20;;;;;;;-145.63;28.49;37819.78;5022946;28;20294;-64
2023/09/20 09:33:38;;;;;;;15.45;8.18;;;;;;;-145.63;28.06;37813.91;5022810;28;20041;-65
2023/09/20 09:36:04;;;;;;;12.77;7.82;;;;;;;-145.63;28.21;37794.38;5022346;28;20026;-63
2023/09/20 09:38:33;;;;;;;10.25;7.43;;;;;;;-145.63;27.51;37901.88;5020490;28;20037;-63
2023/09/20 09:40:59;;;;;;;13.88;7.13;;;;;;;-145.63;28.68;37854.97;5020424;28;20054;-64
2023/09/20 09:43:27;;;;;;;14.32;7.50;;;;;;;-145.63;28.13;37903.84;5020778;28;20056;-63
2023/09/20 09:45:54;;;;;;;16.08;7.30;;;;;;;-145.63;28.13;37937.09;5018927;28;20100;-64
2023/09/20 09:48:24;;;;;;;9.95;7.78;;;;;;;-145.63;28.49;37921.44;5019398;28;20033;-64
2023/09/20 09:50:55;;;;;;;12.45;7.57;;;;;;;-145.63;28.56;37432.72;5022221;28;20036;-65
2023/09/20 09:53:21;;;;;;;14.52;7.63;;;;;;;-145.63;28.63;37968.38;5018262;28;20038;-63
2023/09/20 09:55:49;;;;;;;10.75;7.47;;;;;;;-145.63;29.14;37937.09;5021792;28;20429;-62
2023/09/20 09:58:15;;;;;;;17.92;10.70;;;;;;;-145.63;27.58;37942.94;5022800;28;20113;-63
2023/09/20 10:00:46;;;;;;;10.63;8.23;;;;;;;-145.63;28.15;37944.91;5021762;28;20029;-63
2023/09/20 10:03:32;;;;;;;12.37;7.33;;;;;;;-145.63;27.92;37933.16;5021702;28;20068;-63
2023/09/20 10:06:22;;;;;;;18.92;8.43;;;;;;;-145.63;27.42;37970.31;5020269;28;20416;-63
2023/09/20 10:08:52;;;;;;;11.10;7.32;;;;;;;-145.63;27.85;37993.78;5018557;28;20022;-64
2023/09/20 10:11:22;;;;;;;11.73;7.10;;;;;;;-145.63;27.93;38007.47;5019468;28;20190;-63
2023/09/20 10:13:50;;;;;;;14.30;8.15;;;;;;;-145.63;27.96;37966.41;5023008;28;20140;-63
2023/09/20 10:16:16;;;;;;;15.57;7.53;;;;;;;-145.63;27.77;37897.97;5023232;28;20022;-64
2023/09/20 10:18:54;;;;;;;12.70;7.40;;;;;;;-145.63;27.94;37905.81;5022419;28;20104;-63
2023/09/20 10:21:30;;;;;;;17.15;7.55;;;;;;;-145.63;27.97;37929.25;5021745;28;20029;-64
2023/09/20 10:24:26;;;;;;;15.00;7.65;;;;;;;-145.63;27.47;37960.53;5024337;28;20049;-63
2023/09/20 10:26:54;;;;;;;13.93;6.82;;;;;;;-145.63;26.63;37993.78;5021269;28;20207;-64
2023/09/20 10:29:24;;;;;;;16.75;7.40;;;;;;;-145.63;27.39;38007.47;5023465;28;20038;-63
2023/09/20 10:31:53;;;;;;;12.65;7.57;;;;;;;-145.63;27.83;37811.97;5023554;28;20365;-63
2023/09/20 10:34:20;;;;;;;18.67;8.60;;;;;;;-145.63;27.31;38050.47;5021196;28;20250;-64
2023/09/20 10:36:52;;;;;;;19.30;7.93;;;;;;;-145.63;27.89;38003.56;5023344;28;20195;-63
2023/09/20 10:39:18;;;;;;;13.07;7.97;;;;;;;-145.63;27.78;38007.47;5021775;28;20053;-63
2023/09/20 10:41:46;;;;;;;14.73;7.47;;;;;;;-145.63;27.85;37991.81;5018750;28;20038;-67
2023/09/20 10:44:28;;;;;;;10.48;7.45;;;;;;;-145.63;27.49;37968.38;5018642;28;20021;-65
2023/09/20 10:46:58;;;;;;;9.45;7.60;;;;;;;-145.63;27.11;37847.16;5025160;28;20053;-64
2023/09/20 10:49:47;;;;;;;11.88;7.55;;;;;;;-145.63;26.68;37888.22;5023844;28;20029;-64
2023/09/20 10:52:33;;;;;;;10.20;7.85;;;;;;;-145.63;27.49;37952.72;5026047;28;20021;-63
2023/09/20 10:55:18;;;;;;;11.85;7.45;;;;;;;-145.63;26.76;37958.59;5018568;28;20056;-63
2023/09/20 10:57:49;;;;;;;10.52;7.28;;;;;;;-145.63;27.40;37980.09;5026346;28;20022;-63
2023/09/20 11:00:25;;;;;;;10.57;7.13;;;;;;;-145.63;27.52;37931.22;5022494;28;20034;-63
2023/09/20 11:02:52;;;;;;;10.07;7.18;;;;;;;-145.63;27.45;37755.25;5014835;28;20069;-63
2023/09/20 11:05:18;;;;;;;13.45;7.18;;;;;;;-145.63;27.55;37937.09;5022558;28;20034;-64
2023/09/20 11:07:47;;;;;;;13.20;7.05;;;;;;;-145.63;27.15;37915.56;5015992;28;20034;-63
2023/09/20 11:10:17;;;;;;;22.67;14.32;;;;;;;-145.63;27.15;37941.00;5008631;28;20305;-66
2023/09/20 11:12:43;;;;;;;16.35;6.90;;;;;;;-145.63;26.61;37909.72;5025956;28;20030;-65
2023/09/20 11:15:10;;;;;;;19.77;7.63;;;;;;;-145.63;25.67;37899.94;5026090;28;20048;-64
2023/09/20 11:17:36;;;;;;;17.65;7.10;;;;;;;-145.63;25.86;37944.91;5018759;28;20066;-64
2023/09/20 11:20:06;;;;;;;14.13;6.72;;;;;;;-145.63;26.09;37929.25;5014921;28;20038;-63
2023/09/20 11:22:31;;;;;;;12.68;6.95;;;;;;;-145.63;25.18;37907.75;5024804;28;20093;-65
2023/09/20 11:24:57;;;;;;;15.60;6.72;;;;;;;-145.63;25.62;37907.75;5025973;28;20101;-64
2023/09/20 11:27:24;;;;;;;11.48;7.22;;;;;;;-145.63;25.79;37933.16;5018533;28;20182;-64
2023/09/20 11:29:50;;;;;;;17.40;7.40;;;;;;;-145.63;25.93;37946.84;5022777;28;20026;-63
2023/09/20 11:32:21;;;;;;;15.70;7.20;;;;;;;-145.63;25.71;37919.47;5025162;28;20040;-63
2023/09/20 11:34:50;;;;;;;10.70;6.90;;;;;;;-145.63;25.41;37921.44;5025266;28;20018;-63
2023/09/20 11:37:21;;;;;;;16.23;7.32;;;;;;;-145.63;24.81;37937.09;5024979;28;20046;-64
2023/09/20 11:39:50;;;;;;;15.40;7.20;;;;;;;-145.63;25.30;37948.81;5024648;28;20018;-64
2023/09/20 11:42:27;;;;;;;14.40;6.55;;;;;;;-145.63;25.11;37931.22;5021636;28;20029;-64
2023/09/20 11:45:03;;;;;;;12.85;6.80;;;;;;;-145.63;25.07;37941.00;5013597;28;20030;-66
2023/09/20 11:47:33;;;;;;;11.88;6.53;;;;;;;-145.63;25.35;37997.69;5024992;28;20058;-63
2023/09/20 11:50:00;;;;;;;9.10;6.40;;;;;;;-145.63;25.56;37911.66;5025710;28;20053;-62